Startpagina
METAR-TAF:

METAR-TAF

Vliegvelden :

Lannion, Frankrijk

breedte: 48-45N, lengte: 003-28W, hoogte: 89 m

Actueel weer

Dit bericht is 14 minuten geleden gemaakt, om 20:30 UTC
Wind 3 kt uit het oosten, variërend tussen het noordoosten en het oostzuidoosten
Temperatuur 4°C
Vochtigheid 87%
Druk 1020 hPa
Zicht: 5000 m
Geheel bewolkt op 700 ft
nevel

METAR: LFRO 242030Z AUTO 09003KT 050V120 5000 BR OVC007 04/02 Q1020

Tijdstip: 21:44 (20:44 UTC)


TAF: ontbreekt

Waarnemingen en weersverwachtingen van meer dan 4000 vliegvelden (METAR en TAF).

De beschikbare stations zijn de gele en rode punten op de kaart.

Ga met uw muis naar het station om de naam te zien.

Klik dan om waarnemingen en weersverwachtingen te zien.

kaart wijzigen: klik op de groene knoppen met een zwart kruis om in te zoomen, op de groene knop met een streepje om uit te zoomen of op de groene pijlen voor aangrenzende kaarten.


METAR-TAF: